createdAt,value
2018-09-03T00:00:39.777Z,1005.3
2018-09-03T00:01:41.146Z,1005.3
2018-09-03T00:02:42.513Z,1005.3
2018-09-03T00:03:43.863Z,1005.3
2018-09-03T00:04:45.222Z,1005.3
2018-09-03T00:05:46.572Z,1005.3
2018-09-03T00:06:47.938Z,1005.3
2018-09-03T00:07:49.298Z,1005.3
2018-09-03T00:08:50.658Z,1005.3
2018-09-03T00:09:52.021Z,1005.3
2018-09-03T00:10:53.373Z,1005.3
2018-09-03T00:11:54.731Z,1005.3
2018-09-03T00:12:56.091Z,1005.3
2018-09-03T00:13:57.457Z,1005.3
2018-09-03T00:14:58.817Z,1005.3
2018-09-03T00:16:00.177Z,1005.3
2018-09-03T00:17:01.531Z,1005.3
2018-09-03T00:18:02.893Z,1005.3
2018-09-03T00:19:04.259Z,1005.3
2018-09-03T00:20:05.621Z,1005.3
2018-09-03T00:21:06.979Z,1005.3
2018-09-03T00:22:08.329Z,1005.3
2018-09-03T00:23:09.707Z,1005.3
2018-09-03T00:24:11.073Z,1005.3
2018-09-03T00:25:12.422Z,1005.3
2018-09-03T00:26:13.781Z,1005.2
2018-09-03T00:27:15.142Z,1005.2
2018-09-03T00:28:16.502Z,1005.2
2018-09-03T00:29:17.857Z,1005.1
2018-09-03T00:30:19.227Z,1005.2
2018-09-03T00:31:20.581Z,1005.1
2018-09-03T00:32:21.946Z,1005.1
2018-09-03T00:33:23.297Z,1005.2
2018-09-03T00:34:24.669Z,1005.3
2018-09-03T00:35:26.023Z,1005.3
2018-09-03T00:36:27.384Z,1005.3
2018-09-03T00:37:28.742Z,1005.3
2018-09-03T00:38:30.098Z,1005.3
2018-09-03T00:39:31.453Z,1005.3
2018-09-03T00:40:32.816Z,1005.3
2018-09-03T00:41:34.169Z,1005.2
2018-09-03T00:42:35.536Z,1005.2
2018-09-03T00:43:36.897Z,1005.2
2018-09-03T00:44:38.257Z,1005.3
2018-09-03T00:45:39.618Z,1005.3
2018-09-03T00:46:40.976Z,1005.3
2018-09-03T00:47:42.343Z,1005.3
2018-09-03T00:48:43.703Z,1005.3
2018-09-03T00:49:45.060Z,1005.4
2018-09-03T00:50:46.413Z,1005.4
2018-09-03T00:51:47.788Z,1005.4
2018-09-03T00:52:49.151Z,1005.4
2018-09-03T00:53:50.574Z,1005.4
2018-09-03T00:54:51.933Z,1005.4
2018-09-03T00:55:53.298Z,1005.5
2018-09-03T00:56:54.659Z,1005.5
2018-09-03T00:57:56.018Z,1005.5
2018-09-03T00:58:57.386Z,1005.5
2018-09-03T00:59:58.739Z,1005.5
2018-09-03T01:01:00.098Z,1005.6
2018-09-03T01:02:01.453Z,1005.5
2018-09-03T01:03:02.812Z,1005.6
2018-09-03T01:04:04.173Z,1005.6
2018-09-03T01:05:05.539Z,1005.6
2018-09-03T01:06:06.979Z,1005.6
2018-09-03T01:07:08.338Z,1005.6
2018-09-03T01:08:09.725Z,1005.6
2018-09-03T01:09:11.070Z,1005.6
2018-09-03T01:10:12.427Z,1005.6
2018-09-03T01:11:13.787Z,1005.6
2018-09-03T01:12:15.149Z,1005.6
2018-09-03T01:13:16.517Z,1005.6
2018-09-03T01:14:17.878Z,1005.6
2018-09-03T01:15:19.242Z,1005.6
2018-09-03T01:16:20.598Z,1005.6
2018-09-03T01:17:21.973Z,1005.7
2018-09-03T01:18:23.328Z,1005.6
2018-09-03T01:19:24.690Z,1005.6
2018-09-03T01:20:26.049Z,1005.6
2018-09-03T01:21:27.412Z,1005.6
2018-09-03T01:22:28.772Z,1005.6
2018-09-03T01:23:30.124Z,1005.6
2018-09-03T01:24:31.489Z,1005.6
2018-09-03T01:25:32.835Z,1005.6
2018-09-03T01:26:34.199Z,1005.6
2018-09-03T01:27:35.614Z,1005.6
2018-09-03T01:28:36.976Z,1005.6
2018-09-03T01:29:38.387Z,1005.6
2018-09-03T01:30:39.704Z,1005.6
2018-09-03T01:31:41.057Z,1005.7
2018-09-03T01:32:42.424Z,1005.7
2018-09-03T01:33:43.793Z,1005.7
2018-09-03T01:34:45.164Z,1005.7
2018-09-03T01:35:46.579Z,1005.6
2018-09-03T01:36:47.923Z,1005.7
2018-09-03T01:37:49.290Z,1005.7
2018-09-03T01:38:50.672Z,1005.7
2018-09-03T01:39:52.032Z,1005.7
2018-09-03T01:40:53.423Z,1005.7
2018-09-03T01:41:54.783Z,1005.7
2018-09-03T01:42:56.140Z,1005.7
2018-09-03T01:43:57.500Z,1005.7
2018-09-03T01:44:58.858Z,1005.6
2018-09-03T01:46:00.225Z,1005.6
2018-09-03T01:47:02.097Z,1005.6
2018-09-03T01:48:03.600Z,1005.6
2018-09-03T01:49:05.094Z,1005.6
2018-09-03T01:50:06.428Z,1005.5
2018-09-03T01:51:07.797Z,1005.5
2018-09-03T01:52:09.164Z,1005.5
2018-09-03T01:53:10.524Z,1005.5
2018-09-03T01:54:11.888Z,1005.5
2018-09-03T01:55:13.249Z,1005.5
2018-09-03T01:56:14.608Z,1005.5
2018-09-03T01:57:15.974Z,1005.5
2018-09-03T01:58:17.333Z,1005.4
2018-09-03T01:59:18.729Z,1005.4
2018-09-03T02:00:20.082Z,1005.4
2018-09-03T02:01:21.439Z,1005.4
2018-09-03T02:02:22.814Z,1005.4
2018-09-03T02:03:24.197Z,1005.4
2018-09-03T02:04:25.548Z,1005.4
2018-09-03T02:05:26.913Z,1005.4
2018-09-03T02:06:28.259Z,1005.4
2018-09-03T02:07:29.627Z,1005.4
2018-09-03T02:08:30.993Z,1005.4
2018-09-03T02:09:32.353Z,1005.4
2018-09-03T02:10:33.713Z,1005.4
2018-09-03T02:11:35.075Z,1005.4
2018-09-03T02:12:36.420Z,1005.4
2018-09-03T02:13:37.785Z,1005.4
2018-09-03T02:14:39.139Z,1005.4
2018-09-03T02:15:40.495Z,1005.4
2018-09-03T02:16:41.870Z,1005.3
2018-09-03T02:17:43.232Z,1005.3
2018-09-03T02:18:44.592Z,1005.3
2018-09-03T02:19:45.948Z,1005.3
2018-09-03T02:20:47.298Z,1005.3
2018-09-03T02:21:48.664Z,1005.4
2018-09-03T02:22:50.018Z,1005.4
2018-09-03T02:23:51.392Z,1005.3
2018-09-03T02:24:52.749Z,1005.3
2018-09-03T02:25:54.102Z,1005.3
2018-09-03T02:26:55.480Z,1005.4
2018-09-03T02:27:56.850Z,1005.4
2018-09-03T02:28:58.199Z,1005.3
2018-09-03T02:29:59.565Z,1005.4
2018-09-03T02:31:00.915Z,1005.3
2018-09-03T02:32:02.275Z,1005.3
2018-09-03T02:33:03.624Z,1005.3
2018-09-03T02:34:04.993Z,1005.3
2018-09-03T02:35:06.345Z,1005.3
2018-09-03T02:36:07.710Z,1005.3
2018-09-03T02:37:09.064Z,1005.3
2018-09-03T02:38:10.434Z,1005.3
2018-09-03T02:39:11.793Z,1005.3
2018-09-03T02:40:13.135Z,1005.3
2018-09-03T02:41:14.500Z,1005.3
2018-09-03T02:42:15.858Z,1005.3
2018-09-03T02:43:17.227Z,1005.3
2018-09-03T02:44:18.580Z,1005.3
2018-09-03T02:45:20.117Z,1005.3
2018-09-03T02:46:21.490Z,1005.2
2018-09-03T02:47:22.843Z,1005.2
2018-09-03T02:48:24.208Z,1005.2
2018-09-03T02:49:25.559Z,1005.3
2018-09-03T02:50:26.925Z,1005.3
2018-09-03T02:51:28.280Z,1005.3
2018-09-03T02:52:29.645Z,1005.2
2018-09-03T02:53:31.000Z,1005.2
2018-09-03T02:54:32.366Z,1005.2
2018-09-03T02:55:33.727Z,1005.2
2018-09-03T02:56:35.083Z,1005.2
2018-09-03T02:57:36.440Z,1005.1
2018-09-03T02:58:37.805Z,1005.1
2018-09-03T02:59:39.173Z,1005.1
2018-09-03T03:00:40.534Z,1005.1
2018-09-03T03:01:41.899Z,1005.1
2018-09-03T03:02:43.253Z,1005.1
2018-09-03T03:03:44.614Z,1005.1
2018-09-03T03:04:45.976Z,1005.0
2018-09-03T03:05:47.324Z,1005.0
2018-09-03T03:06:48.697Z,1005.0
2018-09-03T03:07:50.054Z,1005.1
2018-09-03T03:58:47.459Z,1004.7
2018-09-03T03:59:48.969Z,1004.7
2018-09-03T04:00:50.322Z,1004.7
2018-09-03T04:01:51.694Z,1004.7
2018-09-03T04:02:53.058Z,1004.7
2018-09-03T04:03:54.404Z,1004.7
2018-09-03T04:04:55.772Z,1004.7
2018-09-03T04:05:57.148Z,1004.7
2018-09-03T04:06:58.508Z,1004.7
2018-09-03T04:07:59.874Z,1004.7
2018-09-03T04:09:01.220Z,1004.7
2018-09-03T04:10:02.585Z,1004.7
2018-09-03T04:11:03.954Z,1004.6
2018-09-03T04:12:05.324Z,1004.6
2018-09-03T04:13:06.686Z,1004.6
2018-09-03T04:14:08.039Z,1004.6
2018-09-03T04:15:09.404Z,1004.6
2018-09-03T04:16:10.750Z,1004.6
2018-09-03T04:17:12.111Z,1004.6
2018-09-03T04:18:13.472Z,1004.6
2018-09-03T04:19:14.822Z,1004.6
2018-09-03T04:20:16.182Z,1004.5
2018-09-03T04:21:17.545Z,1004.5
2018-09-03T04:22:18.899Z,1004.5
2018-09-03T04:23:20.414Z,1004.5
2018-09-03T04:24:21.624Z,1004.5
2018-09-03T04:25:22.996Z,1004.5
2018-09-03T04:26:24.356Z,1004.5
2018-09-03T04:27:25.724Z,1004.5
2018-09-03T04:28:27.079Z,1004.5
2018-09-03T04:29:28.436Z,1004.5
2018-09-03T04:30:29.800Z,1004.5
2018-09-03T04:31:31.185Z,1004.4
2018-09-03T04:32:32.542Z,1004.4
2018-09-03T04:33:33.919Z,1004.4
2018-09-03T04:34:35.294Z,1004.4
2018-09-03T04:35:36.660Z,1004.4
2018-09-03T04:36:38.006Z,1004.4
2018-09-03T04:37:39.401Z,1004.4
2018-09-03T04:38:40.833Z,1004.4
2018-09-03T04:39:42.127Z,1004.4
2018-09-03T04:40:43.494Z,1004.5
2018-09-03T04:41:44.847Z,1004.4
2018-09-03T04:42:46.195Z,1004.5
2018-09-03T04:43:47.571Z,1004.5
2018-09-03T04:44:48.927Z,1004.5
2018-09-03T04:45:50.311Z,1004.5
2018-09-03T04:46:51.656Z,1004.6
2018-09-03T04:47:53.062Z,1004.6
2018-09-03T04:48:54.387Z,1004.6
2018-09-03T04:49:55.747Z,1004.5
2018-09-03T04:50:57.110Z,1004.5
2018-09-03T04:51:58.472Z,1004.5
2018-09-03T04:52:59.856Z,1004.5
2018-09-03T04:54:01.221Z,1004.5
2018-09-03T04:55:02.587Z,1004.6
2018-09-03T04:56:03.946Z,1004.6
2018-09-03T04:57:05.307Z,1004.5
2018-09-03T04:58:06.673Z,1004.6
2018-09-03T04:59:08.032Z,1004.6
2018-09-03T05:00:09.393Z,1004.6
2018-09-03T05:01:10.747Z,1004.6
2018-09-03T05:02:12.122Z,1004.6
2018-09-03T05:03:13.491Z,1004.6
2018-09-03T05:04:14.853Z,1004.6
2018-09-03T05:05:16.240Z,1004.6
2018-09-03T05:06:17.595Z,1004.6
2018-09-03T05:07:18.947Z,1004.6
2018-09-03T05:08:20.321Z,1004.6
2018-09-03T05:09:21.685Z,1004.6
2018-09-03T05:10:23.042Z,1004.6
2018-09-03T05:11:24.416Z,1004.6
2018-09-03T05:12:25.779Z,1004.6
2018-09-03T05:13:27.147Z,1004.6
2018-09-03T05:14:28.509Z,1004.6
2018-09-03T05:15:29.877Z,1004.6
2018-09-03T05:16:31.242Z,1004.6
2018-09-03T05:17:32.592Z,1004.6
2018-09-03T05:18:34.010Z,1004.6
2018-09-03T05:19:35.373Z,1004.6
2018-09-03T05:20:36.738Z,1004.6
2018-09-03T05:21:38.106Z,1004.6
2018-09-03T05:22:39.486Z,1004.7
2018-09-03T05:23:40.847Z,1004.6
2018-09-03T05:24:42.215Z,1004.6
2018-09-03T05:25:43.576Z,1004.6
2018-09-03T05:26:44.932Z,1004.6
2018-09-03T05:27:46.803Z,1004.6
2018-09-03T05:28:48.171Z,1004.7
2018-09-03T05:29:49.572Z,1004.6
2018-09-03T05:30:50.952Z,1004.6
2018-09-03T05:31:52.317Z,1004.6
2018-09-03T05:32:53.681Z,1004.6
2018-09-03T05:33:55.038Z,1004.6
2018-09-03T05:34:56.403Z,1004.6
2018-09-03T05:35:57.766Z,1004.6
2018-09-03T05:36:59.136Z,1004.6
2018-09-03T05:38:00.497Z,1004.6
2018-09-03T05:39:01.879Z,1004.7
2018-09-03T05:40:03.228Z,1004.7
2018-09-03T05:41:04.590Z,1004.7
2018-09-03T05:42:05.956Z,1004.7
2018-09-03T05:43:07.371Z,1004.7
2018-09-03T05:44:08.654Z,1004.6
2018-09-03T05:45:10.027Z,1004.7
2018-09-03T05:46:11.398Z,1004.7
2018-09-03T05:47:12.744Z,1004.7
2018-09-03T05:48:14.106Z,1004.7
2018-09-03T05:49:15.983Z,1004.8
2018-09-03T05:50:16.982Z,1004.7
2018-09-03T05:51:18.133Z,1004.8
2018-09-03T05:52:19.496Z,1004.8
2018-09-03T05:53:20.853Z,1004.8
2018-09-03T05:54:22.217Z,1004.8
2018-09-03T05:55:23.586Z,1004.8
2018-09-03T05:56:24.944Z,1004.8
2018-09-03T05:57:26.326Z,1004.7
2018-09-03T05:58:27.692Z,1004.8
2018-09-03T05:59:29.056Z,1004.8
2018-09-03T06:00:30.424Z,1004.8
2018-09-03T06:01:31.791Z,1004.8
2018-09-03T06:02:33.164Z,1004.8
2018-09-03T06:03:34.518Z,1004.8
2018-09-03T06:04:35.879Z,1004.8
2018-09-03T06:05:37.251Z,1004.8
2018-09-03T06:06:38.648Z,1004.7
2018-09-03T06:07:40.007Z,1004.8
2018-09-03T06:08:41.390Z,1004.8
2018-09-03T06:09:42.741Z,1004.8
2018-09-03T06:10:44.102Z,1004.7
2018-09-03T06:11:45.474Z,1004.7
2018-09-03T06:12:46.852Z,1004.8
2018-09-03T06:13:48.212Z,1004.8
2018-09-03T06:14:49.589Z,1004.8
2018-09-03T06:15:50.971Z,1004.8
2018-09-03T06:16:52.342Z,1004.8
2018-09-03T06:17:53.771Z,1004.8
2018-09-03T06:18:55.076Z,1004.8
2018-09-03T06:19:56.437Z,1004.8
2018-09-03T06:20:57.808Z,1004.7
2018-09-03T06:21:59.177Z,1004.7
2018-09-03T06:23:00.552Z,1004.7
2018-09-03T06:24:01.902Z,1004.7
2018-09-03T06:25:03.276Z,1004.8
2018-09-03T06:26:04.636Z,1004.8
2018-09-03T06:27:06.003Z,1004.8
2018-09-03T06:28:07.397Z,1004.8
2018-09-03T06:29:08.809Z,1004.8
2018-09-03T06:30:10.174Z,1004.8
2018-09-03T06:31:11.541Z,1004.8
2018-09-03T06:32:12.908Z,1004.9
2018-09-03T06:33:14.271Z,1004.9
2018-09-03T06:34:15.638Z,1004.9
2018-09-03T06:35:17.009Z,1004.9
2018-09-03T06:36:18.372Z,1004.9
2018-09-03T06:37:19.760Z,1004.9
2018-09-03T06:38:21.118Z,1004.8
2018-09-03T06:39:22.502Z,1004.8
2018-09-03T06:40:23.875Z,1004.8
2018-09-03T06:41:25.222Z,1004.7
2018-09-03T06:42:26.595Z,1004.7
2018-09-03T06:43:27.964Z,1004.7
2018-09-03T06:44:29.330Z,1004.7
2018-09-03T06:45:30.679Z,1004.7
2018-09-03T06:46:32.067Z,1004.7
2018-09-03T06:47:33.436Z,1004.8
2018-09-03T06:48:34.818Z,1004.8
2018-09-03T06:49:36.189Z,1004.8
2018-09-03T06:50:37.557Z,1004.8
2018-09-03T06:51:38.928Z,1004.9
2018-09-03T06:52:40.363Z,1005.0
2018-09-03T06:53:41.667Z,1005.0
2018-09-03T06:54:43.043Z,1005.0
2018-09-03T06:55:44.416Z,1004.9
2018-09-03T06:56:45.793Z,1004.8
2018-09-03T06:57:47.181Z,1004.8
2018-09-03T06:58:48.546Z,1004.8
2018-09-03T06:59:49.913Z,1004.8
2018-09-03T07:00:51.297Z,1004.7
2018-09-03T07:01:52.658Z,1004.8
2018-09-03T07:02:54.034Z,1004.8
2018-09-03T07:03:55.411Z,1004.8
2018-09-03T07:04:56.781Z,1004.8
2018-09-03T07:05:58.147Z,1004.8
2018-09-03T07:06:59.507Z,1004.8
2018-09-03T07:08:00.892Z,1004.7
2018-09-03T07:09:02.257Z,1004.7
2018-09-03T07:10:03.627Z,1004.7
2018-09-03T07:11:05.019Z,1004.7
2018-09-03T07:12:06.388Z,1004.7
2018-09-03T07:13:07.754Z,1004.7
2018-09-03T07:14:09.126Z,1004.7
2018-09-03T07:15:10.490Z,1004.8
2018-09-03T07:16:11.867Z,1004.8
2018-09-03T07:17:13.269Z,1004.9
2018-09-03T07:18:14.642Z,1004.9
2018-09-03T07:19:16.019Z,1004.8
2018-09-03T07:20:17.391Z,1005.0
2018-09-03T07:21:18.762Z,1004.9
2018-09-03T07:22:20.131Z,1005.2
2018-09-03T07:23:21.497Z,1005.1
2018-09-03T07:24:22.872Z,1005.2
2018-09-03T07:25:24.240Z,1005.2
2018-09-03T07:26:25.744Z,1005.0
2018-09-03T07:27:27.121Z,1004.9
2018-09-03T07:28:28.498Z,1004.9
2018-09-03T07:29:29.867Z,1004.8
2018-09-03T07:30:31.236Z,1004.8
2018-09-03T07:31:32.641Z,1004.9
2018-09-03T07:32:34.030Z,1004.8
2018-09-03T07:33:35.398Z,1004.8
2018-09-03T07:34:36.764Z,1004.8
2018-09-03T07:35:38.168Z,1004.7
2018-09-03T07:36:39.524Z,1004.7
2018-09-03T07:37:40.893Z,1004.7
2018-09-03T07:38:42.267Z,1004.7
2018-09-03T07:39:43.624Z,1004.7
2018-09-03T07:40:45.015Z,1004.7
2018-09-03T07:41:46.391Z,1004.7
2018-09-03T07:42:47.757Z,1004.8
2018-09-03T07:43:49.128Z,1004.8
2018-09-03T07:44:50.504Z,1004.9
2018-09-03T07:45:51.887Z,1004.9
2018-09-03T07:46:53.257Z,1004.9
2018-09-03T07:47:54.623Z,1005.0
2018-09-03T07:48:56.003Z,1005.0
2018-09-03T07:49:57.383Z,1005.0
2018-09-03T07:50:58.791Z,1004.9
2018-09-03T07:52:00.123Z,1004.8
2018-09-03T07:53:01.513Z,1004.7
2018-09-03T07:54:02.882Z,1004.7
2018-09-03T07:55:04.261Z,1004.7
2018-09-03T07:56:05.609Z,1004.7
2018-09-03T07:57:07.000Z,1004.7
2018-09-03T07:58:08.373Z,1004.7
2018-09-03T07:59:09.735Z,1004.7
2018-09-03T08:00:11.133Z,1004.7
2018-09-03T08:01:12.561Z,1004.8
2018-09-03T08:02:13.856Z,1004.7
2018-09-03T08:03:15.241Z,1004.7
2018-09-03T08:04:16.613Z,1004.7
2018-09-03T08:05:17.987Z,1004.8
2018-09-03T08:06:19.358Z,1004.7
2018-09-03T08:07:20.739Z,1004.7
2018-09-03T08:08:22.097Z,1004.7
2018-09-03T08:09:23.474Z,1004.7
2018-09-03T08:10:24.842Z,1004.7
2018-09-03T08:11:26.214Z,1004.7
2018-09-03T08:12:27.617Z,1004.7
2018-09-03T08:13:28.998Z,1004.8
2018-09-03T08:14:30.380Z,1004.8
2018-09-03T08:15:31.749Z,1004.8
2018-09-03T08:16:33.113Z,1004.8
2018-09-03T08:17:34.481Z,1004.8
2018-09-03T08:18:35.854Z,1004.9
2018-09-03T08:19:37.214Z,1004.9
2018-09-03T08:20:38.588Z,1005.0
2018-09-03T08:21:39.965Z,1005.0
2018-09-03T08:22:41.330Z,1005.0
2018-09-03T08:23:42.726Z,1005.1
2018-09-03T08:24:44.099Z,1005.1
2018-09-03T08:25:45.463Z,1005.2
2018-09-03T08:26:46.834Z,1005.1
2018-09-03T08:27:48.209Z,1005.1
2018-09-03T08:28:49.580Z,1005.0
2018-09-03T08:29:50.951Z,1005.0
2018-09-03T08:30:52.326Z,1005.1
2018-09-03T08:31:53.703Z,1005.1
2018-09-03T08:32:55.083Z,1005.1
2018-09-03T08:33:58.298Z,1005.0
2018-09-03T08:34:59.923Z,1005.0
2018-09-03T08:36:02.183Z,1005.1
2018-09-03T08:37:03.551Z,1005.1
2018-09-03T08:38:04.876Z,1005.0
2018-09-03T08:39:06.330Z,1005.1
2018-09-03T08:40:07.656Z,1005.0
2018-09-03T08:41:09.014Z,1005.0
2018-09-03T08:42:10.399Z,1005.0
2018-09-03T08:43:11.785Z,1004.9
2018-09-03T08:44:13.214Z,1005.0
2018-09-03T08:45:14.592Z,1005.0
2018-09-03T08:46:16.559Z,1005.0
2018-09-03T08:47:17.924Z,1005.1
2018-09-03T08:48:19.291Z,1005.0
2018-09-03T08:49:20.670Z,1005.0
2018-09-03T08:50:22.086Z,1005.0
2018-09-03T08:51:23.381Z,1004.9
2018-09-03T08:52:24.763Z,1004.8
2018-09-03T08:53:26.156Z,1004.8
2018-09-03T08:54:27.554Z,1004.6
2018-09-03T08:55:28.913Z,1004.7
2018-09-03T08:56:30.291Z,1004.7
2018-09-03T08:57:31.676Z,1004.7
2018-09-03T08:58:33.052Z,1004.7
2018-09-03T08:59:34.421Z,1004.7
2018-09-03T09:00:35.803Z,1004.7
2018-09-03T09:01:37.170Z,1004.7
2018-09-03T09:02:38.551Z,1004.7
2018-09-03T09:03:39.921Z,1004.7
2018-09-03T09:04:41.315Z,1004.7
2018-09-03T09:05:42.680Z,1004.7
2018-09-03T09:06:44.055Z,1004.7
2018-09-03T09:07:45.425Z,1004.7
2018-09-03T09:08:46.760Z,1004.7
2018-09-03T09:09:48.121Z,1004.7
2018-09-03T09:10:49.491Z,1004.7
2018-09-03T09:11:50.932Z,1004.6
2018-09-03T09:12:52.219Z,1004.6
2018-09-03T09:13:53.594Z,1004.6
2018-09-03T09:14:54.964Z,1004.6
2018-09-03T09:15:56.331Z,1004.6
2018-09-03T09:16:57.705Z,1004.6
2018-09-03T09:17:59.067Z,1004.7
2018-09-03T09:19:00.451Z,1004.7
2018-09-03T09:20:01.830Z,1004.7
2018-09-03T09:21:03.197Z,1004.7
2018-09-03T09:22:04.570Z,1004.7
2018-09-03T09:23:05.939Z,1004.7
2018-09-03T09:24:07.361Z,1004.6
2018-09-03T09:25:08.817Z,1004.6
2018-09-03T09:26:10.075Z,1004.7
2018-09-03T09:27:11.449Z,1004.7
2018-09-03T09:28:12.829Z,1004.7
2018-09-03T09:29:14.191Z,1004.7
2018-09-03T09:30:16.159Z,1004.7
2018-09-03T09:31:17.530Z,1004.7
2018-09-03T09:32:18.906Z,1004.8
2018-09-03T09:33:20.276Z,1004.8
2018-09-03T09:34:21.680Z,1004.8
2018-09-03T09:35:23.064Z,1004.7
2018-09-03T09:36:24.452Z,1004.6
2018-09-03T09:37:25.835Z,1004.7
2018-09-03T09:38:27.205Z,1004.6
2018-09-03T09:39:28.577Z,1004.6
2018-09-03T09:40:29.954Z,1004.5
2018-09-03T09:41:31.349Z,1004.6
2018-09-03T09:42:32.726Z,1004.6
2018-09-03T09:43:34.106Z,1004.6
2018-09-03T09:44:35.474Z,1004.6
2018-09-03T09:45:36.849Z,1004.6
2018-09-03T09:46:38.224Z,1004.5
2018-09-03T09:47:39.636Z,1004.6
2018-09-03T09:48:41.011Z,1004.6
2018-09-03T09:49:42.390Z,1004.6
2018-09-03T09:50:43.779Z,1004.5
2018-09-03T09:51:45.164Z,1004.5
2018-09-03T09:52:46.536Z,1004.5
2018-09-03T09:53:47.921Z,1004.5
2018-09-03T09:54:49.326Z,1004.5
2018-09-03T09:55:50.687Z,1004.5
2018-09-03T09:56:52.074Z,1004.6
2018-09-03T09:57:53.437Z,1004.6
2018-09-03T09:58:54.817Z,1004.7
2018-09-03T09:59:56.185Z,1004.7
2018-09-03T10:00:57.619Z,1004.7
2018-09-03T10:01:58.991Z,1004.8
2018-09-03T10:03:00.367Z,1004.7
2018-09-03T10:04:01.749Z,1004.6
2018-09-03T10:05:03.180Z,1004.6
2018-09-03T10:06:04.545Z,1004.6
2018-09-03T10:07:05.910Z,1004.7
2018-09-03T10:08:07.305Z,1004.6
2018-09-03T10:09:08.718Z,1004.7
2018-09-03T10:10:10.086Z,1004.6
2018-09-03T10:11:11.455Z,1004.6
2018-09-03T10:12:12.831Z,1004.5
2018-09-03T10:13:14.207Z,1004.5
2018-09-03T10:14:15.580Z,1004.4
2018-09-03T10:15:16.959Z,1004.4
2018-09-03T10:16:18.386Z,1004.4
2018-09-03T10:17:19.745Z,1004.5
2018-09-03T10:18:21.130Z,1004.7
2018-09-03T10:19:22.522Z,1004.8
2018-09-03T10:20:23.909Z,1004.8
2018-09-03T10:21:25.277Z,1004.9
2018-09-03T10:22:26.646Z,1004.8
2018-09-03T10:23:28.020Z,1004.8
2018-09-03T10:24:29.389Z,1004.9
2018-09-03T10:25:30.766Z,1004.9
2018-09-03T10:26:32.137Z,1004.8
2018-09-03T10:27:33.513Z,1004.8
2018-09-03T10:28:34.885Z,1004.9
2018-09-03T10:29:36.276Z,1004.9
2018-09-03T10:30:37.693Z,1005.0
2018-09-03T10:31:39.080Z,1004.9
2018-09-03T10:32:40.446Z,1004.8
2018-09-03T10:33:41.831Z,1004.7
2018-09-03T10:34:43.195Z,1004.6
2018-09-03T10:35:44.580Z,1004.6
2018-09-03T10:36:45.981Z,1004.7
2018-09-03T10:37:47.352Z,1004.7
2018-09-03T10:38:48.747Z,1004.8
2018-09-03T10:39:50.153Z,1004.9
2018-09-03T10:40:51.522Z,1004.7
2018-09-03T10:41:52.907Z,1004.6
2018-09-03T10:42:54.281Z,1004.6
2018-09-03T10:43:55.667Z,1004.7
2018-09-03T10:44:57.036Z,1004.7
2018-09-03T10:45:58.422Z,1004.9
2018-09-03T10:46:59.847Z,1004.8
2018-09-03T10:48:01.207Z,1004.7
2018-09-03T10:49:02.603Z,1004.6
2018-09-03T10:50:03.990Z,1004.6
2018-09-03T10:51:05.357Z,1004.6
2018-09-03T10:52:06.727Z,1004.8
2018-09-03T10:53:08.125Z,1005.0
2018-09-03T10:54:09.511Z,1005.0
2018-09-03T10:55:10.890Z,1004.9
2018-09-03T10:56:12.315Z,1004.8
2018-09-03T10:57:13.668Z,1004.7
2018-09-03T10:58:15.072Z,1004.7
2018-09-03T10:59:16.460Z,1004.8
2018-09-03T11:00:17.840Z,1004.8
2018-09-03T11:01:19.223Z,1005.0
2018-09-03T11:02:20.617Z,1004.7
2018-09-03T11:03:22.002Z,1004.6
2018-09-03T11:04:23.418Z,1004.5
2018-09-03T11:05:24.807Z,1004.6
2018-09-03T11:06:26.201Z,1004.9
2018-09-03T11:07:36.052Z,1004.4
2018-09-03T11:08:37.426Z,1004.4
2018-09-03T11:09:38.820Z,1004.3
2018-09-03T11:10:40.212Z,1004.3
2018-09-03T11:11:41.599Z,1004.2
2018-09-03T11:12:42.981Z,1004.2
2018-09-03T11:13:44.366Z,1004.3
2018-09-03T11:14:45.756Z,1004.3
2018-09-03T11:15:47.141Z,1004.3
2018-09-03T11:16:48.516Z,1004.3
2018-09-03T11:17:49.893Z,1004.3
2018-09-03T11:18:51.281Z,1004.3
2018-09-03T11:19:52.664Z,1004.4
2018-09-03T11:20:54.041Z,1004.5
2018-09-03T11:21:55.425Z,1004.5
2018-09-03T11:22:56.802Z,1004.5
2018-09-03T11:23:58.198Z,1004.5
2018-09-03T11:24:59.560Z,1004.4
2018-09-03T11:26:00.937Z,1004.4
2018-09-03T11:27:02.326Z,1004.4
2018-09-03T11:28:03.702Z,1004.5
2018-09-03T11:29:05.088Z,1004.9
2018-09-03T11:30:06.468Z,1004.7
2018-09-03T11:31:07.842Z,1004.7
2018-09-03T11:32:09.237Z,1004.8
2018-09-03T11:33:10.623Z,1004.7
2018-09-03T11:34:12.011Z,1004.6
2018-09-03T11:35:13.408Z,1004.3
2018-09-03T11:36:14.783Z,1004.2
2018-09-03T11:37:16.173Z,1004.2
2018-09-03T11:38:17.559Z,1004.1
2018-09-03T11:39:18.961Z,1004.1
2018-09-03T11:40:20.348Z,1004.1
2018-09-03T11:41:21.732Z,1004.1
2018-09-03T11:42:23.108Z,1004.1
2018-09-03T11:43:24.491Z,1004.1
2018-09-03T11:44:25.870Z,1004.1
2018-09-03T11:45:27.257Z,1004.1
2018-09-03T11:46:28.639Z,1004.1
2018-09-03T11:47:30.012Z,1004.0
2018-09-03T11:48:31.397Z,1004.1
2018-09-03T11:49:32.798Z,1004.1
2018-09-03T11:50:34.177Z,1004.1
2018-09-03T11:51:35.563Z,1004.0
2018-09-03T11:52:36.955Z,1004.0
2018-09-03T11:53:38.349Z,1004.0
2018-09-03T11:54:39.720Z,1004.1
2018-09-03T11:55:41.098Z,1004.1
2018-09-03T11:56:42.502Z,1004.2
2018-09-03T11:57:43.866Z,1004.2
2018-09-03T11:58:45.251Z,1004.3
2018-09-03T11:59:46.628Z,1004.3
2018-09-03T12:00:48.001Z,1004.4
2018-09-03T12:01:49.387Z,1004.5
2018-09-03T12:02:51.109Z,1004.5
2018-09-03T12:03:52.512Z,1004.3
2018-09-03T12:04:53.903Z,1004.6
2018-09-03T12:05:55.288Z,1004.4
2018-09-03T12:06:56.674Z,1004.4
2018-09-03T12:07:58.058Z,1004.3
2018-09-03T12:08:59.434Z,1004.2
2018-09-03T12:10:00.818Z,1004.1
2018-09-03T12:11:02.202Z,1004.2
2018-09-03T12:12:03.586Z,1004.2
2018-09-03T12:13:04.972Z,1004.2
2018-09-03T12:14:06.347Z,1004.3
2018-09-03T12:15:07.724Z,1004.3
2018-09-03T12:16:09.254Z,1004.3
2018-09-03T12:17:10.636Z,1004.3
2018-09-03T12:18:12.012Z,1004.4
2018-09-03T12:19:13.461Z,1004.2
2018-09-03T12:20:14.852Z,1004.2
2018-09-03T12:21:16.315Z,1004.2
2018-09-03T12:22:17.616Z,1004.0
2018-09-03T12:23:18.989Z,1004.0
2018-09-03T12:24:20.386Z,1003.9
2018-09-03T12:25:21.778Z,1003.9
2018-09-03T12:26:23.153Z,1003.9
2018-09-03T12:27:24.533Z,1003.8
2018-09-03T12:28:25.916Z,1003.9
2018-09-03T12:29:27.288Z,1003.8
2018-09-03T12:30:28.669Z,1003.8
2018-09-03T12:31:30.072Z,1003.8
2018-09-03T12:32:31.448Z,1003.9
2018-09-03T12:33:32.837Z,1003.8
2018-09-03T12:34:34.212Z,1003.9
2018-09-03T12:35:35.580Z,1003.9
2018-09-03T12:36:36.953Z,1003.9
2018-09-03T12:37:38.327Z,1003.9
2018-09-03T12:38:39.709Z,1003.9
2018-09-03T12:39:41.113Z,1003.9
2018-09-03T12:40:42.613Z,1003.9
2018-09-03T12:41:43.994Z,1003.9
2018-09-03T12:42:45.427Z,1003.9
2018-09-03T12:43:46.841Z,1003.8
2018-09-03T12:44:48.242Z,1003.8
2018-09-03T12:45:49.634Z,1003.9
2018-09-03T12:46:51.009Z,1003.8
2018-09-03T12:47:52.388Z,1003.8
2018-09-03T12:48:53.772Z,1003.9
2018-09-03T12:49:55.143Z,1003.8
2018-09-03T12:50:56.587Z,1003.9
2018-09-03T12:51:57.985Z,1003.9
2018-09-03T12:52:59.367Z,1003.9
2018-09-03T12:54:00.752Z,1003.9
2018-09-03T12:55:02.129Z,1004.0
2018-09-03T12:56:03.504Z,1003.9
2018-09-03T12:57:04.898Z,1004.0
2018-09-03T12:58:07.237Z,1004.0
2018-09-03T12:59:08.618Z,1003.9
2018-09-03T13:00:09.989Z,1003.9
2018-09-03T13:01:11.359Z,1003.9
2018-09-03T13:02:12.744Z,1003.8
2018-09-03T13:03:14.155Z,1003.8
2018-09-03T13:04:15.474Z,1003.7
2018-09-03T13:05:16.862Z,1003.8
2018-09-03T13:06:18.261Z,1003.8
2018-09-03T13:07:19.616Z,1003.8
2018-09-03T13:08:20.994Z,1003.8
2018-09-03T13:09:22.379Z,1003.9
2018-09-03T13:10:23.764Z,1003.8
2018-09-03T13:11:25.138Z,1003.9
2018-09-03T13:12:26.536Z,1003.9
2018-09-03T13:13:27.908Z,1003.9
2018-09-03T13:14:29.292Z,1003.9
2018-09-03T13:15:30.662Z,1003.9
2018-09-03T13:16:32.070Z,1003.9
2018-09-03T13:17:33.452Z,1003.9
2018-09-03T13:18:34.821Z,1003.8
2018-09-03T13:19:36.203Z,1003.9
2018-09-03T13:20:37.582Z,1003.8
2018-09-03T13:21:38.953Z,1003.8
2018-09-03T13:22:40.347Z,1003.9
2018-09-03T13:23:41.724Z,1003.8
2018-09-03T13:24:43.162Z,1003.9
2018-09-03T13:25:44.514Z,1003.8
2018-09-03T13:26:45.897Z,1003.8
2018-09-03T13:27:47.282Z,1003.9
2018-09-03T13:28:48.663Z,1003.9
2018-09-03T13:29:50.040Z,1004.0
2018-09-03T13:30:51.495Z,1003.9
2018-09-03T13:31:52.822Z,1004.0
2018-09-03T13:32:54.197Z,1003.9
2018-09-03T13:33:55.578Z,1003.9
2018-09-03T13:34:56.974Z,1003.9
2018-09-03T13:35:58.408Z,1004.1